Bookmark and Share
Track history (hours):
 

High Glow

Last reported at 2014-Jan-27 21:32 UTC. Time now 2014-Apr-24 22:11 UTC.
Position N 01°14' E 103°26'.
Warning: this ship's position is months out of date.

Length 180 m; draft 8.2 m.

Type: Tanker. MMSI: 371179000.

NotesDate/timePositionNaut miles runAvg speedWind from/ knotsBaromVisibWave heightAir tempDewpointWater temp
2014-Jan-27 21:32N 01°14' E 103°26'1413.9
2014-Jan-27 20:33N 01°11' E 103°40'1212.4
2014-Jan-27 19:33N 01°12' E 103°52'6 0.1
2014-Jan-26 05:04N 01°14' E 103°57'4 7.8
2014-Jan-26 04:33N 01°12' E 103°54'1 1.1
2014-Jan-26 03:33N 01°13' E 103°53'5 4.6
2014-Jan-26 02:30N 01°15' E 103°57'1 0.1
2014-Jan-25 16:33N 01°15' E 103°56'8 8.0
2014-Jan-25 15:33N 01°14' E 103°48'0 0.3
2014-Jan-25 14:33N 01°14' E 103°48'0 0.0
2014-Jan-25 13:30N 01°14' E 103°48'0 0.0
2014-Jan-25 12:33N 01°14' E 103°48'0 0.0
2014-Jan-25 11:33N 01°14' E 103°48'0 0.0
2014-Jan-25 10:24N 01°14' E 103°48'0 0.0
2014-Jan-25 09:24N 01°14' E 103°48'0 0.0
2014-Jan-25 08:24N 01°14' E 103°48'0 0.0
2014-Jan-25 07:30N 01°14' E 103°48'0 0.1
2014-Jan-25 06:33N 01°14' E 103°48'0 0.0
2014-Jan-25 05:21N 01°14' E 103°48'0 0.0
2014-Jan-25 04:33N 01°14' E 103°48'0 0.0
2014-Jan-25 03:33N 01°14' E 103°48'0 0.0
2014-Jan-25 01:33N 01°14' E 103°48'0 0.0
2014-Jan-25 00:33N 01°14' E 103°48'0 0.0
2014-Jan-24 23:30N 01°14' E 103°48'0 0.0
2014-Jan-24 22:33N 01°14' E 103°48'0 0.1
2014-Jan-24 21:33N 01°14' E 103°48'0 0.1
2014-Jan-24 20:33N 01°14' E 103°48'0 0.1
2014-Jan-24 18:30N 01°14' E 103°48'0 0.0
2014-Jan-24 17:33N 01°14' E 103°48'0 0.0
2014-Jan-24 16:33N 01°14' E 103°48'0 0.1
2014-Jan-24 15:30N 01°14' E 103°48'0 0.0
2014-Jan-24 14:33N 01°14' E 103°48'0 0.0
2014-Jan-24 13:33N 01°14' E 103°48'0 0.1
2014-Jan-24 12:33N 01°14' E 103°48'7 6.8
2014-Jan-24 11:33N 01°13' E 103°41'5 5.3
2014-Jan-24 10:33N 01°18' E 103°39'0 0.1
2014-Jan-24 09:28N 01°18' E 103°39'0 0.2
2014-Jan-24 08:31N 01°18' E 103°39'0 0.0
2014-Jan-24 05:31N 01°18' E 103°39'0 0.0
2014-Jan-24 04:28N 01°18' E 103°39'0 0.0
2014-Jan-24 03:22N 01°18' E 103°39'0 0.0
2014-Jan-24 02:25N 01°18' E 103°39'0 0.0
2014-Jan-24 01:31N 01°18' E 103°39'0 0.0
2014-Jan-24 00:28N 01°18' E 103°39'0 0.0
2014-Jan-23 23:31N 01°18' E 103°39'0 0.0
2014-Jan-23 22:31N 01°18' E 103°39'0 0.0
2014-Jan-23 21:28N 01°18' E 103°39'0 0.0
2014-Jan-23 20:31N 01°18' E 103°39'0 0.0
2014-Jan-23 19:31N 01°18' E 103°39'0 0.0
2014-Jan-23 18:28N 01°18' E 103°39'0 0.0
2014-Jan-23 17:31N 01°18' E 103°39'0 0.0
2014-Jan-23 16:31N 01°18' E 103°39'0 0.0
2014-Jan-23 15:28N 01°18' E 103°39'0 0.0
2014-Jan-23 14:31N 01°18' E 103°39'0 0.0
2014-Jan-23 13:31N 01°18' E 103°39'0 0.0
2014-Jan-23 12:31N 01°18' E 103°39'0 0.0
2014-Jan-23 11:28N 01°18' E 103°39'0 0.0
2014-Jan-23 10:28N 01°18' E 103°39'0 0.0
2014-Jan-23 09:31N 01°18' E 103°39'0 0.0
2014-Jan-23 08:31N 01°18' E 103°39'0 0.0
2014-Jan-23 07:22N 01°18' E 103°39'0 0.0
2014-Jan-23 06:25N 01°18' E 103°39'0 0.0
2014-Jan-23 05:31N 01°18' E 103°39'0 0.0
2014-Jan-23 04:28N 01°18' E 103°39'0 0.0
2014-Jan-23 03:31N 01°18' E 103°39'0 0.0
2014-Jan-23 02:25N 01°18' E 103°39'0 0.0
2014-Jan-23 01:31N 01°18' E 103°39'0 0.0
2014-Jan-23 00:31N 01°18' E 103°39'0 0.0
2014-Jan-22 23:31N 01°18' E 103°39'0 0.0
2014-Jan-22 22:28N 01°18' E 103°39'0 0.0
2014-Jan-22 21:31N 01°18' E 103°39'0 0.0
2014-Jan-22 20:31N 01°18' E 103°39'0 0.0
2014-Jan-22 19:31N 01°18' E 103°39'0 0.0
2014-Jan-22 18:25N 01°18' E 103°39'0 0.0
2014-Jan-22 17:28N 01°18' E 103°39'0 0.0
2014-Jan-22 16:31N 01°18' E 103°39'0 0.0
2014-Jan-22 15:16N 01°18' E 103°39'0 0.0
2014-Jan-22 14:28N 01°18' E 103°39'0 0.0
2014-Jan-22 13:22N 01°18' E 103°39'0 0.0
2014-Jan-22 12:28N 01°18' E 103°39'0 0.0
2014-Jan-22 11:31N 01°18' E 103°39'0 0.0
2014-Jan-22 10:31N 01°18' E 103°39'0 0.0
2014-Jan-22 09:28N 01°18' E 103°39'0 0.0
2014-Jan-22 08:31N 01°18' E 103°39'0 0.0
2014-Jan-22 07:22N 01°18' E 103°39'0 0.0
2014-Jan-22 06:16N 01°18' E 103°39'0 0.0
2014-Jan-22 05:07N 01°18' E 103°39'0 0.0
2014-Jan-22 04:28N 01°18' E 103°39'0 0.0
2014-Jan-22 03:19N 01°18' E 103°39'0 0.0
2014-Jan-22 02:25N 01°18' E 103°39'0 0.0
2014-Jan-22 01:28N 01°18' E 103°39'0 0.0
2014-Jan-22 00:31N 01°18' E 103°39'0 0.0
2014-Jan-21 23:25N 01°18' E 103°39'0 0.0
2014-Jan-21 22:31N 01°18' E 103°39'0 0.0
2014-Jan-21 21:31N 01°18' E 103°39'0 0.0
2014-Jan-21 20:31N 01°18' E 103°39'0 0.0
2014-Jan-21 19:22N 01°18' E 103°39'0 0.0
2014-Jan-21 18:28N 01°18' E 103°39'0 0.0
2014-Jan-21 17:28N 01°18' E 103°39'0 0.0
2014-Jan-21 16:25N 01°18' E 103°39'0 0.0
2014-Jan-21 15:31N 01°18' E 103°39'0 0.0
2014-Jan-21 14:31N 01°18' E 103°39'0 0.0
2014-Jan-21 12:28N 01°18' E 103°39'0 0.0
2014-Jan-21 11:31N 01°18' E 103°39'0 0.0
2014-Jan-21 10:10N 01°18' E 103°39'0 0.0
2014-Jan-21 09:28N 01°18' E 103°39'0 0.0
2014-Jan-21 08:16N 01°18' E 103°39'0 0.0
2014-Jan-21 07:28N 01°18' E 103°39'0 0.0
2014-Jan-21 06:31N 01°18' E 103°39'0 0.0
2014-Jan-21 05:31N 01°18' E 103°39'0 0.0
2014-Jan-21 04:28N 01°18' E 103°39'0 0.0
2014-Jan-21 03:28N 01°18' E 103°39'0 0.0
2014-Jan-21 02:31N 01°18' E 103°39'0 0.0
2014-Jan-21 01:13N 01°18' E 103°39'0 0.0
2014-Jan-21 00:31N 01°18' E 103°39'0 0.0
2014-Jan-20 22:28N 01°18' E 103°39'0 0.0
2014-Jan-20 21:25N 01°18' E 103°39'0 0.0
2014-Jan-20 20:31N 01°18' E 103°39'0 0.0
2014-Jan-20 19:25N 01°18' E 103°39'0 0.0
2014-Jan-20 18:10N 01°18' E 103°39'0 0.0
2014-Jan-20 17:25N 01°18' E 103°39'0 0.0
2014-Jan-20 16:28N 01°18' E 103°39'0 0.0
2014-Jan-20 15:31N 01°18' E 103°39'0 0.0
2014-Jan-20 14:25N 01°18' E 103°39'0 0.0
2014-Jan-20 13:28N 01°18' E 103°39'0 0.0
2014-Jan-20 12:25N 01°18' E 103°39'0 0.0
2014-Jan-20 11:25N 01°18' E 103°39'0 0.0
2014-Jan-20 10:25N 01°18' E 103°39'0 0.0
2014-Jan-20 09:31N 01°18' E 103°39'0 0.0
2014-Jan-20 07:31N 01°18' E 103°39'0 0.0
2014-Jan-20 06:31N 01°18' E 103°39'0 0.0
2014-Jan-20 05:28N 01°18' E 103°39'0 0.0
2014-Jan-20 03:07N 01°18' E 103°39'0 0.0
2014-Jan-20 02:16N 01°18' E 103°39'0 0.0
2014-Jan-20 01:31N 01°18' E 103°39'0 0.0
2014-Jan-20 00:22N 01°18' E 103°39'0 0.0
2014-Jan-19 23:22N 01°18' E 103°39'0 0.0
2014-Jan-19 22:25N 01°18' E 103°39'0 0.0
2014-Jan-19 20:19N 01°18' E 103°39'0 0.0
2014-Jan-19 19:31N 01°18' E 103°39'0 0.0
2014-Jan-19 18:22N 01°18' E 103°39'0 0.0
2014-Jan-19 17:04N 01°18' E 103°39'0 0.0
2014-Jan-19 16:25N 01°18' E 103°39'0 0.0
2014-Jan-19 13:31N 01°18' E 103°39'0 0.0
2014-Jan-19 11:25N 01°18' E 103°39'0 0.0
2014-Jan-19 10:28N 01°18' E 103°39'0 0.0
2014-Jan-19 09:28N 01°18' E 103°39'0 0.0
2014-Jan-19 08:31N 01°18' E 103°39'0 0.0
2014-Jan-19 07:28N 01°18' E 103°39'0 0.0
2014-Jan-19 06:22N 01°18' E 103°39'0 0.0
2014-Jan-19 05:31N 01°18' E 103°39'0 0.0
2014-Jan-19 04:31N 01°18' E 103°39'0 0.0
2014-Jan-19 03:31N 01°18' E 103°39'0 0.0
2014-Jan-19 02:25N 01°18' E 103°39'0 0.0
2014-Jan-19 01:31N 01°18' E 103°39'0 0.0
2014-Jan-19 00:22N 01°18' E 103°39'0 0.0
2014-Jan-18 23:31N 01°18' E 103°39'0 0.0
2014-Jan-18 22:31N 01°18' E 103°39'0 0.0
2014-Jan-18 21:31N 01°18' E 103°39'0 0.0
2014-Jan-18 20:28N 01°18' E 103°39'0 0.0
2014-Jan-18 19:19N 01°18' E 103°39'0 0.0
2014-Jan-18 18:28N 01°18' E 103°39'0 0.0
2014-Jan-18 17:07N 01°18' E 103°39'0 0.0
2014-Jan-18 16:07N 01°18' E 103°39'0 0.0
2014-Jan-18 14:07N 01°18' E 103°39'0 0.0
2014-Jan-18 13:19N 01°18' E 103°39'0 0.0
2014-Jan-18 12:31N 01°18' E 103°39'0 0.0
2014-Jan-18 11:28N 01°18' E 103°39'0 0.0
2014-Jan-18 10:31N 01°18' E 103°39'0 0.0
2014-Jan-18 09:28N 01°18' E 103°39'0 0.0
2014-Jan-18 08:13N 01°18' E 103°39'0 0.0
2014-Jan-18 07:31N 01°18' E 103°39'0 0.0
2014-Jan-18 06:25N 01°18' E 103°39'0 0.0
2014-Jan-18 05:25N 01°18' E 103°39'0 0.0
2014-Jan-18 04:04N 01°18' E 103°39'0 0.0
2014-Jan-18 03:31N 01°18' E 103°39'0 0.0
2014-Jan-18 02:31N 01°18' E 103°39'0 0.0
2014-Jan-18 01:22N 01°18' E 103°39'0 0.0
2014-Jan-18 00:22N 01°18' E 103°39'0 0.0
2014-Jan-17 23:31N 01°18' E 103°39'0 0.0
2014-Jan-17 22:28N 01°18' E 103°39'  

Dump ship's entire track history

sailing weather and tide predictions

High Glow — 3EAV5 — position and weather